Time;durP1;ratioP1;P1;durP2;ratioP2;P2;SDS_P1;SDS_P2;PMS_P1;PMS_P2;Temp;Humidity;BMP_temperature;BMP_pressure;BME280_temperature;BME280_humidity;BME280_pressure;Samples;Min_cycle;Max_cycle;Signal;HPM_P1;HPM_P2
2023/10/08 04:02:14;;;;;;;0.60;0.10;;;16.90;99.90;;;;;;5208313;23;20515;-71
2023/10/08 04:04:51;;;;;;;0.60;0.10;;;17.00;99.90;;;;;;4993141;28;20455;-72
2023/10/08 04:07:28;;;;;;;0.60;0.20;;;16.90;99.90;;;;;;4994387;28;20439;-70
2023/10/08 04:10:29;;;;;;;1.77;1.60;;;17.00;99.90;;;;;;4994476;28;20444;-71
2023/10/08 04:12:54;;;;;;;0.60;0.10;;;17.00;99.90;;;;;;4966767;28;20476;-70
2023/10/08 04:15:23;;;;;;;0.60;0.10;;;17.00;99.90;;;;;;4974769;28;20450;-70
2023/10/08 04:17:53;;;;;;;1.40;0.37;;;17.00;99.90;;;;;;4972724;28;20462;-71
2023/10/08 04:20:38;;;;;;;1.63;1.33;;;17.10;99.90;;;;;;4972950;28;20473;-71
2023/10/08 04:23:13;;;;;;;1.40;0.87;;;17.00;99.90;;;;;;4973401;28;20457;-72
2023/10/08 04:25:43;;;;;;;1.47;0.83;;;17.00;99.90;;;;;;4973072;28;20437;-71
2023/10/08 04:28:17;;;;;;;1.27;0.63;;;17.00;99.90;;;;;;4979376;28;20811;-72
2023/10/08 04:30:45;;;;;;;0.60;0.10;;;17.00;99.90;;;;;;4972729;28;20511;-71
2023/10/08 04:33:14;;;;;;;1.17;0.63;;;17.00;99.90;;;;;;4973080;28;20508;-72
2023/10/08 04:35:48;;;;;;;0.70;0.37;;;17.00;99.90;;;;;;4970686;28;20446;-71
2023/10/08 04:38:18;;;;;;;0.60;0.10;;;17.00;99.90;;;;;;4971852;28;20828;-71
2023/10/08 04:40:49;;;;;;;0.60;0.10;;;16.90;99.90;;;;;;4972066;28;20485;-70
2023/10/08 04:43:23;;;;;;;0.60;0.10;;;17.00;99.90;;;;;;4971990;28;20953;-71
2023/10/08 04:45:50;;;;;;;0.60;0.20;;;17.00;99.90;;;;;;4972187;28;20454;-71
2023/10/08 04:48:20;;;;;;;0.60;0.10;;;16.90;99.90;;;;;;4972160;28;20482;-70
2023/10/08 04:50:57;;;;;;;0.60;0.20;;;16.90;99.90;;;;;;4972309;28;20516;-71
2023/10/08 04:53:31;;;;;;;0.90;0.60;;;16.90;99.90;;;;;;4972251;28;20472;-71
2023/10/08 04:56:05;;;;;;;0.60;0.10;;;16.70;99.90;;;;;;4972427;28;20868;-70
2023/10/08 04:58:40;;;;;;;0.60;0.17;;;16.70;99.90;;;;;;4971969;28;20529;-70
2023/10/08 05:01:18;;;;;;;1.00;0.63;;;16.80;99.90;;;;;;4972250;28;20465;-71
2023/10/08 05:04:07;;;;;;;1.07;0.97;;;16.80;99.90;;;;;;4972066;28;20442;-69
2023/10/08 05:07:00;;;;;;;0.60;0.20;;;16.70;99.90;;;;;;4971813;28;20453;-71
2023/10/08 05:09:45;;;;;;;0.60;0.10;;;16.80;99.90;;;;;;4972359;28;20438;-71
2023/10/08 05:12:30;;;;;;;1.00;0.90;;;16.90;99.90;;;;;;4971953;28;20488;-72
2023/10/08 05:15:21;;;;;;;1.10;0.60;;;17.00;99.90;;;;;;4972030;28;20446;-72
2023/10/08 05:17:57;;;;;;;0.80;0.40;;;16.80;99.90;;;;;;4971933;28;20450;-72
2023/10/08 05:20:56;;;;;;;0.73;0.30;;;16.80;99.90;;;;;;4972479;28;20464;-71
2023/10/08 05:23:53;;;;;;;0.60;0.20;;;16.80;99.90;;;;;;4971844;28;20948;-71
2023/10/08 05:26:31;;;;;;;0.60;0.10;;;16.90;99.90;;;;;;4971903;28;20445;-71
2023/10/08 05:29:01;;;;;;;8.03;2.60;;;16.90;99.90;;;;;;4971782;28;20516;-71
2023/10/08 05:31:46;;;;;;;0.60;0.10;;;16.90;99.90;;;;;;4972218;28;20568;-71
2023/10/08 05:34:15;;;;;;;5.03;0.37;;;16.90;99.90;;;;;;4969804;28;20505;-71
2023/10/08 05:39:42;;;;;;;0.60;0.10;;;16.90;99.90;;;;;;4972142;28;20445;-71
2023/10/08 05:42:19;;;;;;;0.60;0.10;;;17.00;99.90;;;;;;4972301;28;20461;-71
2023/10/08 05:45:13;;;;;;;0.60;0.17;;;17.00;99.90;;;;;;4971850;28;20536;-71
2023/10/08 05:47:38;;;;;;;0.83;0.53;;;16.80;99.90;;;;;;4971738;28;20537;-71
2023/10/08 05:53:01;;;;;;;0.60;0.10;;;16.60;99.90;;;;;;4972176;28;20504;-71
2023/10/08 05:55:34;;;;;;;3.23;1.30;;;16.70;99.90;;;;;;4971918;28;20454;-71
2023/10/08 05:58:24;;;;;;;0.60;0.10;;;16.60;99.90;;;;;;4971395;28;20442;-72
2023/10/08 06:01:26;;;;;;;0.60;0.10;;;16.60;99.90;;;;;;4971934;28;21144;-72
2023/10/08 06:04:11;;;;;;;1.43;0.87;;;16.60;99.90;;;;;;4971860;28;20979;-71
2023/10/08 06:06:47;;;;;;;0.60;0.13;;;16.70;99.90;;;;;;4974201;28;20457;-70
2023/10/08 06:09:21;;;;;;;0.60;0.10;;;16.70;99.90;;;;;;4978223;28;20449;-71
2023/10/08 06:12:10;;;;;;;0.60;0.10;;;16.90;99.90;;;;;;4977964;28;20480;-71
2023/10/08 06:14:52;;;;;;;0.60;0.10;;;16.90;99.90;;;;;;4965138;28;20450;-71
2023/10/08 06:17:55;;;;;;;0.70;0.40;;;17.00;99.90;;;;;;4956228;29;20967;-71
2023/10/08 06:20:26;;;;;;;0.60;0.20;;;17.10;99.90;;;;;;4956330;29;20501;-71
2023/10/08 06:23:00;;;;;;;1.93;0.70;;;17.10;99.90;;;;;;4955962;29;20465;-71
2023/10/08 06:25:30;;;;;;;0.70;0.40;;;17.20;99.90;;;;;;4956097;29;20564;-71
2023/10/08 06:27:58;;;;;;;0.60;0.10;;;17.20;99.90;;;;;;4955657;29;20539;-71
2023/10/08 06:30:29;;;;;;;1.03;0.80;;;17.10;99.90;;;;;;4955842;29;20455;-71
2023/10/08 06:32:57;;;;;;;0.60;0.10;;;16.40;99.90;;;;;;4956155;29;21000;-71
2023/10/08 06:35:27;;;;;;;0.60;0.10;;;17.10;99.90;;;;;;4972670;28;20450;-72
2023/10/08 06:37:59;;;;;;;0.60;0.10;;;17.20;99.90;;;;;;4976071;28;20445;-71
2023/10/08 06:40:42;;;;;;;0.60;0.10;;;17.20;99.90;;;;;;4976106;28;20536;-70
2023/10/08 06:43:16;;;;;;;0.60;0.10;;;17.20;99.90;;;;;;4976255;28;20542;-71
2023/10/08 06:45:46;;;;;;;0.70;0.20;;;17.20;99.90;;;;;;4974650;28;20823;-73
2023/10/08 06:48:20;;;;;;;0.60;0.13;;;17.10;99.90;;;;;;4974698;28;20968;-70
2023/10/08 06:50:49;;;;;;;0.60;0.10;;;17.20;99.90;;;;;;4974704;28;20476;-71
2023/10/08 06:53:19;;;;;;;0.60;0.30;;;17.30;99.90;;;;;;4974648;28;20485;-72
2023/10/08 06:55:54;;;;;;;0.60;0.10;;;17.30;99.90;;;;;;4974813;28;20445;-72
2023/10/08 06:58:23;;;;;;;0.60;0.43;;;17.30;99.90;;;;;;4974728;28;20524;-70
2023/10/08 07:00:52;;;;;;;0.90;0.50;;;17.30;99.90;;;;;;4974686;28;20477;-72
2023/10/08 07:03:20;;;;;;;0.80;0.60;;;17.30;99.90;;;;;;4975201;28;20446;-71
2023/10/08 07:05:59;;;;;;;0.60;0.10;;;17.30;99.90;;;;;;4973171;28;20453;-70
2023/10/08 07:08:31;;;;;;;0.60;0.10;;;17.30;99.90;;;;;;4974457;28;20449;-70
2023/10/08 07:11:06;;;;;;;0.60;0.10;;;17.40;99.90;;;;;;4967789;28;20455;-70
2023/10/08 07:13:35;;;;;;;0.60;0.20;;;17.40;99.90;;;;;;4955057;29;20486;-71
2023/10/08 07:16:06;;;;;;;0.80;0.50;;;17.50;99.90;;;;;;4955251;29;20955;-71
2023/10/08 07:18:33;;;;;;;0.60;0.10;;;17.40;99.90;;;;;;4954729;28;20871;-71
2023/10/08 07:21:11;;;;;;;0.60;0.20;;;17.50;99.90;;;;;;4955183;29;20530;-71
2023/10/08 07:23:55;;;;;;;0.60;0.10;;;17.50;99.90;;;;;;4954893;29;20451;-71
2023/10/08 07:26:35;;;;;;;0.60;0.10;;;17.50;99.90;;;;;;4954533;29;20454;-70
2023/10/08 07:29:08;;;;;;;0.60;0.20;;;17.50;99.90;;;;;;4954601;29;20451;-71
2023/10/08 07:31:37;;;;;;;0.60;0.20;;;17.60;99.90;;;;;;4954413;29;20467;-70
2023/10/08 07:34:17;;;;;;;0.60;0.10;;;17.50;99.90;;;;;;4959833;28;20442;-71
2023/10/08 07:36:49;;;;;;;0.60;0.23;;;17.50;99.90;;;;;;4959768;28;21687;-71
2023/10/08 07:39:26;;;;;;;0.60;0.20;;;17.60;99.90;;;;;;4976535;28;20523;-71
2023/10/08 07:41:56;;;;;;;0.60;0.10;;;17.70;99.90;;;;;;4977232;28;20473;-70
2023/10/08 07:44:25;;;;;;;3.80;3.60;;;;;;;;;;4968469;28;20497;-71
2023/10/08 07:46:54;;;;;;;0.60;0.10;;;17.70;99.90;;;;;;4986191;28;20971;-71
2023/10/08 07:49:23;;;;;;;0.60;0.10;;;17.80;99.90;;;;;;4993051;28;20519;-71
2023/10/08 07:51:51;;;;;;;0.60;0.20;;;17.70;99.90;;;;;;4992722;28;20979;-71
2023/10/08 07:54:22;;;;;;;0.60;0.10;;;17.70;99.90;;;;;;4992963;28;21223;-71
2023/10/08 07:56:51;;;;;;;1.67;1.57;;;17.70;99.90;;;;;;4985375;28;20472;-71
2023/10/08 07:59:22;;;;;;;0.60;0.20;;;17.60;99.90;;;;;;4972211;28;20462;-70
2023/10/08 08:01:52;;;;;;;0.60;0.20;;;17.60;99.90;;;;;;4963179;28;21042;-72
2023/10/08 08:04:22;;;;;;;0.60;0.10;;;17.50;99.90;;;;;;4973159;28;20446;-72
2023/10/08 08:06:51;;;;;;;0.60;0.10;;;17.50;99.90;;;;;;4972853;28;20465;-71
2023/10/08 08:09:19;;;;;;;0.60;0.10;;;17.50;99.90;;;;;;4973046;28;20501;-71
2023/10/08 08:11:48;;;;;;;0.60;0.10;;;17.40;99.90;;;;;;4971324;28;20500;-72
2023/10/08 08:14:17;;;;;;;0.60;0.27;;;17.40;99.90;;;;;;4965615;28;20464;-72
2023/10/08 08:16:48;;;;;;;0.60;0.20;;;17.40;99.90;;;;;;4983501;28;20447;-72
2023/10/08 08:19:16;;;;;;;14.97;13.90;;;17.40;99.90;;;;;;4964460;28;20449;-71
2023/10/08 08:21:46;;;;;;;0.60;0.13;;;17.60;99.90;;;;;;4972523;28;21193;-71
2023/10/08 08:24:28;;;;;;;0.60;0.10;;;17.60;99.90;;;;;;4972281;28;21007;-72
2023/10/08 08:27:08;;;;;;;0.60;0.10;;;17.70;99.90;;;;;;4958860;28;20466;-73
2023/10/08 08:29:44;;;;;;;0.80;0.40;;;17.70;99.90;;;;;;4971251;28;20448;-72
2023/10/08 08:32:15;;;;;;;0.60;0.20;;;17.80;99.90;;;;;;4960926;28;20468;-70
2023/10/08 08:34:43;;;;;;;0.60;0.10;;;17.90;99.90;;;;;;4981994;28;20452;-72
2023/10/08 08:37:12;;;;;;;0.60;0.10;;;17.80;99.90;;;;;;4989034;28;20458;-71
2023/10/08 08:39:41;;;;;;;3.80;3.60;;;17.80;99.90;;;;;;4975477;28;20446;-71
2023/10/08 08:42:10;;;;;;;0.60;0.10;;;17.90;99.90;;;;;;4969270;28;20501;-72
2023/10/08 08:44:45;;;;;;;0.60;0.10;;;18.00;99.90;;;;;;4965122;28;20956;-73
2023/10/08 08:47:17;;;;;;;0.60;0.10;;;18.10;99.90;;;;;;4973817;28;20441;-72
2023/10/08 08:49:46;;;;;;;0.60;0.10;;;18.10;99.90;;;;;;4972633;28;20536;-72
2023/10/08 08:52:15;;;;;;;0.60;0.20;;;18.10;99.90;;;;;;4983340;28;20487;-74
2023/10/08 08:54:43;;;;;;;0.60;0.13;;;18.20;99.90;;;;;;4976949;28;20528;-72
2023/10/08 08:57:14;;;;;;;1.23;1.13;;;18.30;99.90;;;;;;4974141;28;20485;-72
2023/10/08 08:59:47;;;;;;;0.60;0.20;;;18.30;99.90;;;;;;4977332;28;20509;-72
2023/10/08 09:02:18;;;;;;;2.30;2.10;;;18.40;99.90;;;;;;4967015;28;20481;-71
2023/10/08 09:04:48;;;;;;;0.70;0.30;;;18.50;99.90;;;;;;4975945;28;20449;-72
2023/10/08 09:07:21;;;;;;;0.60;0.10;;;18.50;99.90;;;;;;4971051;28;20537;-72
2023/10/08 09:09:49;;;;;;;0.60;0.20;;;18.40;99.90;;;;;;4972027;28;20575;-73
2023/10/08 09:12:18;;;;;;;0.60;0.10;;;18.50;99.90;;;;;;4970618;28;20980;-74
2023/10/08 09:14:47;;;;;;;0.60;0.10;;;18.50;99.90;;;;;;4970759;28;20539;-72
2023/10/08 09:17:19;;;;;;;0.60;0.10;;;18.50;99.90;;;;;;4971597;28;20804;-71
2023/10/08 09:19:46;;;;;;;1.27;1.10;;;18.50;99.90;;;;;;4979528;28;20471;-71
2023/10/08 09:22:19;;;;;;;0.60;0.20;;;18.60;99.90;;;;;;4973976;28;20935;-71
2023/10/08 09:24:48;;;;;;;0.60;0.10;;;18.70;99.90;;;;;;4983696;28;20456;-74
2023/10/08 09:27:20;;;;;;;0.60;0.10;;;18.70;99.90;;;;;;4961474;28;20469;-71
2023/10/08 09:29:48;;;;;;;0.60;0.20;;;18.80;99.90;;;;;;4982541;28;20939;-71
2023/10/08 09:32:23;;;;;;;0.60;0.20;;;;;;;;;;4972283;28;20557;-72
2023/10/08 09:34:53;;;;;;;0.60;0.20;;;19.00;99.90;;;;;;4965659;28;20572;-73
2023/10/08 09:37:22;;;;;;;0.60;0.20;;;19.00;99.90;;;;;;4964982;28;20582;-73
2023/10/08 09:39:52;;;;;;;4.10;2.13;;;19.00;99.90;;;;;;4959665;28;20453;-71
2023/10/08 09:42:22;;;;;;;0.60;0.13;;;18.80;99.90;;;;;;4966905;28;20544;-73
2023/10/08 09:44:50;;;;;;;0.60;0.20;;;18.90;99.90;;;;;;4975776;28;20816;-72
2023/10/08 09:47:23;;;;;;;0.80;0.50;;;19.10;99.90;;;;;;4974917;28;20466;-74
2023/10/08 09:49:57;;;;;;;6.50;1.90;;;19.10;99.90;;;;;;4974554;28;20467;-72
2023/10/08 09:52:34;;;;;;;0.73;0.33;;;19.10;99.90;;;;;;4975125;28;20498;-73
2023/10/08 09:55:10;;;;;;;2.97;1.27;;;19.10;99.90;;;;;;4960781;28;20925;-73
2023/10/08 09:57:38;;;;;;;0.60;0.30;;;19.10;99.90;;;;;;4960515;28;20500;-73
2023/10/08 10:00:10;;;;;;;1.37;1.27;;;19.10;99.90;;;;;;4974327;28;20519;-72
2023/10/08 10:02:42;;;;;;;1.00;0.20;;;19.10;99.90;;;;;;4963091;28;20573;-72
2023/10/08 10:05:13;;;;;;;0.60;0.10;;;19.00;99.90;;;;;;4972141;28;20468;-73
2023/10/08 10:07:43;;;;;;;0.60;0.10;;;19.10;99.90;;;;;;4970090;28;20501;-71
2023/10/08 10:10:27;;;;;;;1.43;0.70;;;19.20;99.90;;;;;;4976003;28;20447;-71
2023/10/08 10:12:59;;;;;;;0.60;0.10;;;19.10;99.90;;;;;;4975579;28;20450;-72
2023/10/08 10:15:30;;;;;;;1.53;0.80;;;19.20;99.90;;;;;;4968148;28;20943;-72
2023/10/08 10:18:08;;;;;;;3.10;1.50;;;19.10;99.90;;;;;;4974549;28;20449;-71
2023/10/08 10:20:42;;;;;;;1.00;0.47;;;19.10;99.90;;;;;;4975074;28;20501;-70
2023/10/08 10:23:37;;;;;;;7.50;3.70;;;19.00;99.90;;;;;;4973430;28;20446;-72
2023/10/08 10:26:09;;;;;;;0.60;0.10;;;19.00;99.90;;;;;;4972754;28;20446;-71
2023/10/08 10:28:37;;;;;;;0.60;0.10;;;18.90;99.90;;;;;;4968669;28;20583;-71
2023/10/08 10:31:07;;;;;;;0.80;0.40;;;18.90;99.90;;;;;;4971263;28;20465;-71
2023/10/08 10:33:38;;;;;;;3.90;1.60;;;18.90;99.90;;;;;;4973058;28;20576;-71
2023/10/08 10:36:13;;;;;;;0.80;0.40;;;19.00;99.90;;;;;;4972994;28;20450;-71
2023/10/08 10:38:42;;;;;;;2.10;0.90;;;19.00;99.90;;;;;;4974524;28;20481;-71
2023/10/08 10:41:10;;;;;;;0.60;0.30;;;19.00;99.90;;;;;;4974556;28;20505;-71
2023/10/08 10:43:40;;;;;;;1.17;0.40;;;19.00;99.90;;;;;;4974542;28;20537;-71
2023/10/08 10:46:29;;;;;;;0.80;0.77;;;19.00;99.90;;;;;;4974479;28;20482;-71
2023/10/08 10:49:07;;;;;;;0.60;0.10;;;19.10;99.90;;;;;;4974242;28;20529;-71
2023/10/08 10:51:35;;;;;;;0.87;0.60;;;19.40;99.90;;;;;;4957589;28;20509;-69
2023/10/08 10:54:09;;;;;;;2.40;0.93;;;19.40;99.90;;;;;;4979401;28;20489;-67
2023/10/08 10:56:42;;;;;;;0.60;0.10;;;19.60;99.90;;;;;;5048055;23;21019;-72
2023/10/08 10:59:18;;;;;;;0.70;0.40;;;19.60;99.90;;;;;;4974888;28;20999;-73
2023/10/08 11:01:52;;;;;;;5.70;1.40;;;19.80;99.90;;;;;;4972426;28;20896;-74
2023/10/08 11:04:19;;;;;;;7.27;1.43;;;20.00;99.90;;;;;;4981072;28;20504;-79
2023/10/08 11:06:56;;;;;;;0.60;0.20;;;19.90;99.90;;;;;;4979370;28;20497;-78
2023/10/08 11:09:37;;;;;;;0.70;0.30;;;19.90;99.90;;;;;;4974398;28;20469;-77
2023/10/08 11:12:10;;;;;;;0.60;0.20;;;20.10;99.90;;;;;;4981527;28;20982;-78
2023/10/08 11:14:42;;;;;;;0.60;0.10;;;20.00;99.90;;;;;;4977973;28;20540;-77
2023/10/08 11:17:12;;;;;;;0.60;0.10;;;20.00;99.90;;;;;;4983290;28;20452;-76
2023/10/08 11:19:42;;;;;;;0.60;0.10;;;20.10;99.90;;;;;;4975075;28;20509;-76
2023/10/08 11:22:16;;;;;;;1.83;1.73;;;20.20;99.90;;;;;;4979907;28;20572;-76
2023/10/08 11:24:47;;;;;;;7.10;4.20;;;20.30;99.90;;;;;;4995541;28;20438;-76
2023/10/08 11:27:17;;;;;;;1.17;1.03;;;20.30;99.90;;;;;;4995757;28;20496;-76
2023/10/08 11:29:47;;;;;;;0.60;0.10;;;20.50;99.90;;;;;;4976863;28;20443;-73
2023/10/08 11:32:17;;;;;;;0.60;0.10;;;20.50;99.90;;;;;;4977077;28;20443;-71
2023/10/08 11:34:49;;;;;;;0.60;0.10;;;20.60;99.90;;;;;;4977718;28;20478;-71
2023/10/08 11:37:29;;;;;;;0.60;0.10;;;20.60;99.90;;;;;;4977676;28;20448;-71
2023/10/08 11:39:58;;;;;;;1.23;1.13;;;20.70;99.90;;;;;;4985320;28;20483;-73
2023/10/08 11:42:43;;;;;;;0.60;0.13;;;20.80;99.90;;;;;;4968237;28;20455;-70
2023/10/08 11:45:25;;;;;;;0.60;0.10;;;20.70;99.90;;;;;;4975723;28;20458;-78
2023/10/08 11:47:56;;;;;;;0.60;0.30;;;20.60;99.90;;;;;;4977777;28;20449;-76
2023/10/08 11:50:30;;;;;;;3.27;2.00;;;20.60;99.90;;;;;;4968489;28;20435;-77
2023/10/08 11:53:02;;;;;;;0.60;0.20;;;20.50;99.90;;;;;;4989329;28;20949;-80
2023/10/08 11:55:35;;;;;;;6.70;3.67;;;20.50;99.90;;;;;;4988773;28;20491;-79
2023/10/08 11:58:09;;;;;;;0.60;0.10;;;20.40;99.90;;;;;;5006774;28;20461;-77
2023/10/08 12:00:43;;;;;;;0.60;0.10;;;20.30;99.90;;;;;;4985400;28;20448;-78
2023/10/08 12:03:13;;;;;;;0.60;0.17;;;20.40;99.90;;;;;;4981853;28;20778;-79
2023/10/08 12:05:47;;;;;;;0.70;0.30;;;20.60;99.90;;;;;;4975662;28;20464;-78
2023/10/08 12:08:17;;;;;;;1.23;0.37;;;20.60;99.90;;;;;;4987757;28;20933;-79
2023/10/08 12:10:46;;;;;;;4.93;0.30;;;20.60;99.90;;;;;;4991112;28;20504;-77
2023/10/08 12:13:16;;;;;;;0.60;0.20;;;20.70;99.90;;;;;;4980574;28;20513;-77
2023/10/08 12:15:47;;;;;;;0.60;0.10;;;20.80;99.90;;;;;;4970570;28;20480;-76
2023/10/08 12:18:24;;;;;;;0.60;0.10;;;20.80;99.90;;;;;;4959468;28;20487;-78
2023/10/08 12:20:53;;;;;;;0.60;0.20;;;20.90;99.90;;;;;;4984649;28;20471;-78
2023/10/08 12:23:25;;;;;;;0.73;0.30;;;20.90;99.90;;;;;;4978630;28;20456;-76
2023/10/08 12:25:55;;;;;;;0.60;0.17;;;21.00;99.90;;;;;;4979218;28;20551;-78
2023/10/08 12:28:24;;;;;;;0.80;0.33;;;;;;;;;;4987245;28;20482;-78
2023/10/08 12:30:53;;;;;;;1.10;0.80;;;21.10;99.90;;;;;;4974778;28;20602;-76
2023/10/08 12:33:23;;;;;;;0.70;0.50;;;21.20;99.90;;;;;;4975893;28;20458;-77
2023/10/08 12:35:53;;;;;;;3.27;1.60;;;21.20;99.90;;;;;;4973841;28;20497;-76
2023/10/08 12:38:22;;;;;;;0.60;0.10;;;21.30;99.90;;;;;;4958307;28;20551;-77
2023/10/08 12:40:53;;;;;;;1.80;1.70;;;21.40;99.90;;;;;;4976235;28;20470;-76
2023/10/08 12:43:22;;;;;;;1.00;0.57;;;21.40;99.90;;;;;;4986585;28;20476;-77
2023/10/08 12:45:52;;;;;;;0.60;0.10;;;21.20;99.90;;;;;;4991112;28;20992;-77
2023/10/08 12:48:25;;;;;;;0.60;0.20;;;21.30;99.90;;;;;;4977211;28;21037;-78
2023/10/08 12:50:56;;;;;;;1.40;0.50;;;21.30;99.90;;;;;;4974877;28;20452;-78
2023/10/08 12:53:34;;;;;;;0.70;0.23;;;21.30;99.90;;;;;;4980721;28;20472;-77
2023/10/08 12:56:05;;;;;;;0.60;0.10;;;;;;;;;;4994941;28;20505;-76
2023/10/08 12:58:41;;;;;;;0.60;0.10;;;21.40;99.90;;;;;;4989752;28;20446;-76
2023/10/08 13:01:09;;;;;;;0.70;0.40;;;21.40;99.90;;;;;;4992820;28;20534;-76
2023/10/08 13:03:41;;;;;;;0.60;0.20;;;21.40;99.90;;;;;;4970266;28;20480;-78
2023/10/08 13:06:14;;;;;;;0.60;0.10;;;21.50;99.90;;;;;;4975348;28;20498;-77
2023/10/08 13:08:44;;;;;;;0.83;0.60;;;21.60;99.90;;;;;;4976235;28;20453;-76
2023/10/08 13:11:12;;;;;;;0.60;0.13;;;21.60;99.90;;;;;;4977205;28;20444;-78
2023/10/08 13:13:39;;;;;;;0.60;0.10;;;21.60;99.90;;;;;;4978869;28;20555;-78
2023/10/08 13:16:08;;;;;;;0.60;0.10;;;21.60;99.90;;;;;;4986895;28;20496;-72
2023/10/08 13:18:43;;;;;;;0.60;0.10;;;21.60;99.90;;;;;;4982967;28;20510;-79
2023/10/08 13:21:11;;;;;;;0.60;0.10;;;21.60;99.90;;;;;;4994134;28;20859;-77
2023/10/08 13:23:41;;;;;;;0.60;0.27;;;21.60;99.90;;;;;;4985584;28;20446;-79
2023/10/08 13:26:16;;;;;;;0.60;0.10;;;21.60;99.90;;;;;;4979631;28;20463;-77
2023/10/08 13:28:45;;;;;;;0.60;0.10;;;21.60;99.90;;;;;;4983746;28;20513;-76
2023/10/08 13:31:15;;;;;;;0.60;0.20;;;21.60;99.90;;;;;;4984671;28;20468;-78
2023/10/08 13:33:48;;;;;;;0.60;0.10;;;21.60;99.90;;;;;;4999258;28;20653;-79
2023/10/08 13:36:17;;;;;;;0.60;0.17;;;21.50;99.90;;;;;;4972590;28;20496;-77
2023/10/08 13:38:47;;;;;;;1.40;1.30;;;21.60;99.90;;;;;;4993566;28;20530;-78
2023/10/08 13:41:19;;;;;;;0.60;0.10;;;21.50;99.90;;;;;;4998639;28;20444;-78
2023/10/08 13:43:51;;;;;;;0.60;0.20;;;21.60;99.90;;;;;;4988791;28;20480;-78
2023/10/08 13:46:26;;;;;;;0.60;0.10;;;21.60;99.90;;;;;;4984832;28;20464;-79
2023/10/08 13:48:54;;;;;;;0.60;0.10;;;21.60;99.90;;;;;;4989199;28;20483;-77
2023/10/08 13:51:25;;;;;;;0.60;0.10;;;21.70;99.90;;;;;;4981520;28;20949;-77
2023/10/08 13:53:59;;;;;;;0.60;0.10;;;21.70;99.90;;;;;;4983571;28;20586;-78
2023/10/08 13:56:30;;;;;;;0.60;0.10;;;21.70;99.90;;;;;;4983708;28;20490;-80
2023/10/08 13:59:06;;;;;;;0.60;0.10;;;21.80;99.90;;;;;;4984408;28;20444;-75
2023/10/08 14:01:34;;;;;;;0.60;0.10;;;21.70;99.90;;;;;;4980164;28;20900;-77
2023/10/08 14:04:05;;;;;;;0.60;0.20;;;21.70;99.90;;;;;;4987107;28;20449;-77
2023/10/08 14:06:35;;;;;;;3.70;0.67;;;21.70;99.90;;;;;;4983889;28;20536;-78
2023/10/08 14:09:07;;;;;;;0.60;0.10;;;21.60;99.90;;;;;;4985684;28;20442;-77
2023/10/08 14:11:36;;;;;;;1.40;1.30;;;21.60;99.90;;;;;;4975224;28;20475;-77
2023/10/08 14:14:11;;;;;;;0.60;0.10;;;21.60;99.90;;;;;;4997215;28;20490;-78
2023/10/08 14:16:42;;;;;;;0.60;0.10;;;21.60;99.90;;;;;;4990859;28;20486;-77
2023/10/08 14:19:12;;;;;;;0.60;0.10;;;21.60;99.90;;;;;;5001156;28;20456;-77
2023/10/08 14:21:49;;;;;;;0.60;0.20;;;21.60;99.90;;;;;;4996538;28;20512;-77
2023/10/08 14:24:17;;;;;;;0.60;0.10;;;;;;;;;;5008957;28;20436;-75
2023/10/08 14:26:52;;;;;;;0.60;0.10;;;22.30;99.90;;;;;;5002067;28;20865;-77
2023/10/08 14:29:21;;;;;;;0.60;0.10;;;21.60;99.90;;;;;;4982195;28;20864;-79
2023/10/08 14:31:49;;;;;;;0.60;0.10;;;;;;;;;;4992909;28;20450;-77
2023/10/08 14:34:29;;;;;;;0.60;0.10;;;21.50;99.90;;;;;;4996667;28;20513;-80
2023/10/08 14:45:18;;;;;;;0.60;0.10;;;;;;;;;;4985795;28;20467;-78
2023/10/08 14:47:48;;;;;;;0.60;0.10;;;21.20;99.90;;;;;;4988360;28;20458;-76
2023/10/08 14:50:16;;;;;;;0.60;0.10;;;21.20;99.90;;;;;;4991284;28;20566;-79
2023/10/08 14:52:44;;;;;;;0.60;0.20;;;21.10;99.90;;;;;;4981122;28;20546;-79
2023/10/08 14:55:13;;;;;;;0.70;0.53;;;20.90;99.90;;;;;;4991847;28;20530;-77
2023/10/08 14:57:43;;;;;;;0.60;0.10;;;20.90;99.90;;;;;;4989540;28;20485;-77
2023/10/08 15:00:12;;;;;;;0.60;0.10;;;;;;;;;;4991241;28;20439;-79
2023/10/08 15:02:44;;;;;;;0.60;0.10;;;20.80;99.90;;;;;;4972881;28;20461;-78
2023/10/08 15:05:14;;;;;;;0.60;0.10;;;20.80;99.90;;;;;;4979296;28;20476;-77
2023/10/08 15:07:42;;;;;;;0.60;0.10;;;20.70;99.90;;;;;;4979504;28;20446;-78
2023/10/08 15:10:10;;;;;;;0.60;0.10;;;20.60;99.90;;;;;;4983720;28;20820;-76
2023/10/08 15:12:38;;;;;;;0.60;0.10;;;20.50;99.90;;;;;;4980006;28;20466;-77
2023/10/08 15:15:13;;;;;;;0.60;0.10;;;20.40;99.90;;;;;;4991213;28;20478;-77
2023/10/08 15:17:43;;;;;;;0.60;0.10;;;20.40;99.90;;;;;;4976850;28;20488;-77
2023/10/08 15:20:14;;;;;;;0.90;0.70;;;20.40;99.90;;;;;;4992351;28;20454;-77
2023/10/08 15:22:43;;;;;;;0.83;0.57;;;20.40;99.90;;;;;;4974090;28;20479;-78
2023/10/08 15:25:11;;;;;;;0.60;0.20;;;20.40;99.90;;;;;;4980072;28;20483;-77
2023/10/08 15:27:40;;;;;;;2.00;1.90;;;20.40;99.90;;;;;;4970391;28;20438;-79
2023/10/08 15:30:12;;;;;;;0.60;0.23;;;20.40;99.90;;;;;;4975293;28;20466;-76
2023/10/08 15:32:40;;;;;;;0.60;0.10;;;20.40;99.90;;;;;;4972533;28;20481;-78
2023/10/08 15:35:09;;;;;;;1.80;1.13;;;20.20;99.90;;;;;;4976344;28;20493;-78
2023/10/08 15:37:38;;;;;;;0.60;0.10;;;20.20;99.90;;;;;;4976782;28;20518;-77
2023/10/08 15:40:07;;;;;;;1.13;0.50;;;20.20;99.90;;;;;;4984480;28;20861;-78
2023/10/08 15:42:36;;;;;;;0.60;0.20;;;;;;;;;;4976977;28;20943;-78
2023/10/08 15:45:05;;;;;;;0.60;0.17;;;19.90;99.90;;;;;;4978138;28;20901;-78
2023/10/08 15:47:36;;;;;;;0.60;0.20;;;19.90;99.90;;;;;;4982796;28;20438;-74
2023/10/08 15:50:04;;;;;;;0.60;0.10;;;19.90;99.90;;;;;;4988389;28;20904;-76
2023/10/08 15:52:32;;;;;;;2.30;1.80;;;19.80;99.90;;;;;;4989183;28;20470;-77
2023/10/08 15:55:04;;;;;;;0.60;0.13;;;19.70;99.90;;;;;;4995390;28;20541;-76
2023/10/08 15:57:32;;;;;;;0.60;0.10;;;19.70;99.90;;;;;;4967583;28;20962;-77
2023/10/08 16:00:04;;;;;;;0.60;0.10;;;;;;;;;;4985774;28;20489;-79
2023/10/08 16:02:32;;;;;;;0.60;0.10;;;;;;;;;;4988296;28;20806;-78
2023/10/08 16:05:03;;;;;;;0.80;0.63;;;;;;;;;;4984391;28;20484;-78
2023/10/08 16:07:31;;;;;;;0.60;0.10;;;19.60;99.90;;;;;;4980556;28;20517;-71
2023/10/08 16:10:02;;;;;;;0.60;0.20;;;;;;;;;;4975400;28;20470;-78
2023/10/08 16:12:33;;;;;;;0.60;0.10;;;19.60;99.90;;;;;;4973651;28;20936;-77
2023/10/08 16:15:01;;;;;;;0.60;0.20;;;19.50;99.90;;;;;;4982835;28;20562;-77
2023/10/08 16:17:31;;;;;;;0.60;0.10;;;19.50;99.90;;;;;;4988531;28;20548;-78
2023/10/08 16:20:03;;;;;;;0.60;0.20;;;19.30;99.90;;;;;;4993018;28;20450;-78
2023/10/08 16:22:35;;;;;;;0.60;0.20;;;19.30;99.90;;;;;;4996577;28;20428;-78
2023/10/08 16:25:03;;;;;;;0.60;0.20;;;19.10;99.90;;;;;;4982394;28;20484;-77
2023/10/08 16:27:34;;;;;;;0.60;0.20;;;19.10;99.90;;;;;;4985194;28;20485;-77
2023/10/08 16:30:02;;;;;;;0.60;0.10;;;19.00;99.90;;;;;;4970007;28;20493;-77
2023/10/08 16:32:30;;;;;;;0.60;0.10;;;18.90;99.90;;;;;;4962983;28;20891;-77
2023/10/08 16:34:58;;;;;;;0.60;0.20;;;18.80;99.90;;;;;;4967327;28;20517;-77
2023/10/08 16:37:26;;;;;;;0.60;0.10;;;;;;;;;;4983865;28;20480;-79
2023/10/08 16:39:56;;;;;;;0.60;0.10;;;18.80;99.90;;;;;;4974020;28;21205;-78
2023/10/08 16:42:26;;;;;;;0.60;0.10;;;18.80;99.90;;;;;;4975879;28;20477;-78
2023/10/08 16:44:56;;;;;;;0.60;0.20;;;18.70;99.90;;;;;;4982936;28;20521;-78
2023/10/08 16:47:24;;;;;;;0.60;0.20;;;18.70;99.90;;;;;;4975433;28;20470;-78
2023/10/08 16:49:51;;;;;;;0.60;0.10;;;18.60;99.90;;;;;;4979696;28;20535;-78
2023/10/08 16:52:20;;;;;;;0.60;0.10;;;18.60;99.90;;;;;;4966706;28;20519;-77
2023/10/08 16:54:48;;;;;;;0.60;0.10;;;18.50;99.90;;;;;;4980124;28;20533;-77
2023/10/08 16:57:17;;;;;;;0.60;0.10;;;18.50;99.90;;;;;;5019705;23;20601;-70
2023/10/08 16:59:45;;;;;;;0.60;0.10;;;18.40;99.90;;;;;;4972658;28;20458;-72
2023/10/08 17:02:14;;;;;;;0.60;0.20;;;18.40;99.90;;;;;;4958595;28;20455;-70
2023/10/08 17:04:42;;;;;;;0.60;0.10;;;18.50;99.90;;;;;;4974561;28;20872;-71
2023/10/08 17:07:10;;;;;;;0.60;0.10;;;18.50;99.90;;;;;;4975315;28;20463;-71
2023/10/08 17:09:39;;;;;;;0.60;0.10;;;;;;;;;;4974317;28;20536;-71
2023/10/08 17:12:09;;;;;;;0.60;0.10;;;18.50;99.90;;;;;;4989928;28;21009;-70
2023/10/08 17:14:39;;;;;;;0.60;0.10;;;18.50;99.90;;;;;;4982786;28;20445;-71
2023/10/08 17:17:06;;;;;;;0.60;0.10;;;18.40;99.90;;;;;;4982191;28;20489;-69
2023/10/08 17:19:34;;;;;;;0.60;0.10;;;18.40;99.90;;;;;;4972901;28;20944;-70
2023/10/08 17:22:04;;;;;;;0.60;0.10;;;18.50;99.90;;;;;;4986387;28;20527;-73
2023/10/08 17:24:32;;;;;;;0.60;0.10;;;18.50;99.90;;;;;;4980453;28;20449;-71
2023/10/08 17:27:02;;;;;;;0.60;0.10;;;18.50;99.90;;;;;;4963562;28;20552;-71
2023/10/08 17:29:43;;;;;;;0.60;0.20;;;18.50;99.90;;;;;;4978267;28;20442;-71
2023/10/08 17:32:10;;;;;;;0.60;0.10;;;18.30;99.90;;;;;;4960000;28;20456;-70